Glendale, MA

5:31 PM EDT on September 20, 2014 (GMT -0400)
Barnes Municipal | Change Station
CLOSE
Current Station
Airport
Location: Westfield,
Elevation: 269 ft
Nearby Weather Stations

Elev 269 ft 42.16 °N, 72.71 °W | Updated 38 minutes ago

Partly Cloudy
Partly Cloudy
71 °F
Feels Like 71 °F
N
9
Wind Variable Wind from South
Gusts 20 mph

Today
High -- | Low -- °F
--% Chance of Precip.
Yesterday
High -- | Low -- °F
Precip. -- in
6:38 AM 6:54 PM
Waning Crescent, 10% visible
Pressure 30.13 in
Visibility 10.0 miles
Clouds Mostly Cloudy 4100 ft
Dew Point 55 °F
Humidity 57%
Rainfall 0.00 in
Snow Depth Not available.
UV 1 out of 12
Pollen 3.20 out of 12
PM2.5 Moderate
Flu Activity Not available.
METAR KBAF 202053Z 19008G17KT 10SM BKN041 22/13 A3012 RMK AO2 SLP202 T02170128 56018

More Conditions Fewer Conditions

Pressure 30.13 in
Visibility 10.0 miles
Clouds Mostly Cloudy 4100 ft
Dew Point 55 °F
Humidity 57%
Rainfall 0.00 in
Snow Depth Not available.
UV 1 out of 12
Pollen 3.20 out of 12
PM2.5 Moderate
Flu Activity Not available.
METAR KBAF 202053Z 19008G17KT 10SM BKN041 22/13 A3012 RMK AO2 SLP202 T02170128 56018

More Conditions Fewer Conditions

10-Day Weather Forecast

Almanac

Astronomy

Sep. 20, 2014 Rise Set
Actual Time 6:38 AM EDT 6:54 PM EDT
Civil Twilight 6:10 AM EDT 7:22 PM EDT
Nautical Twilight 5:37 AM EDT 7:55 PM EDT
Astronomical Twilight 5:03 AM EDT 8:28 PM EDT
Moon 3:12 AM EDT 4:58 PM EDT
Length of Visible Light 13h 11m
Length of Day
12h 15m
Tomorrow will be 2m 50s shorter.
Waning Crescent, 10% of the Moon is Illuminated
Today
Waning Crescent
Sep 24
New
Oct 1
First Quarter
Oct 8
Full
Oct 15
Last Quarter

Today's Extremes

State Highs State Lows

Community

WunderPhotos

Upload Photos

1,754,947 photos uploaded!

WunderBlogs® & News

Nearby

Air Quality

  Air Quality AQ Index Pollutant
Yesterday Moderate
PM2.5
Current Moderate
PM2.5
Saturday Good
PM2.5
Saturday Good
OZONE
Sunday Good
PM2.5
Sunday Good
OZONE

Snow Depth

Station Depth Elevation
No new snow has been reported.

Earthquake Activity

City Distance Mag. Time & Date
No recent earthquake activity has been reported nearby.
Minimum magnitude displayed is 2.5.

Coastal Water Temperatures

Place Temperature
No Stations Reporting

Nearby Weather Stations